Time;durP1;ratioP1;P1;durP2;ratioP2;P2;SDS_P1;SDS_P2;PMS_P1;PMS_P2;Temp;Humidity;BMP_temperature;BMP_pressure;BME280_temperature;BME280_humidity;BME280_pressure;Samples;Min_cycle;Max_cycle;Signal;HPM_P1;HPM_P2
2023/01/26 00:01:29;;;;;;;;;;;1.70;98.70;;;;;;5007240;28;19920;-68
2023/01/26 00:03:55;;;;;;;;;;;1.70;98.70;;;;;;5008322;28;19919;-68
2023/01/26 00:06:20;;;;;;;;;;;1.70;98.70;;;;;;5008277;28;19917;-69
2023/01/26 00:08:50;;;;;;;;;;;1.70;98.70;;;;;;5008047;28;19914;-69
2023/01/26 00:11:19;;;;;;;;;;;1.70;98.70;;;;;;5007926;28;19941;-68
2023/01/26 00:13:45;;;;;;;;;;;1.70;98.70;;;;;;5007998;28;19917;-68
2023/01/26 00:16:12;;;;;;;;;;;1.70;98.70;;;;;;5007701;28;19925;-68
2023/01/26 00:18:38;;;;;;;;;;;1.70;98.70;;;;;;5001667;28;19920;-69
2023/01/26 00:21:04;;;;;;;;;;;1.70;98.70;;;;;;5003541;28;19914;-68
2023/01/26 00:23:31;;;;;;;;;;;1.70;98.70;;;;;;5007483;28;19943;-68
2023/01/26 00:25:56;;;;;;;;;;;1.70;98.70;;;;;;4990254;28;19952;-69
2023/01/26 00:28:22;;;;;;;;;;;1.70;98.70;;;;;;4992509;28;20100;-68
2023/01/26 00:30:47;;;;;;;;;;;1.70;98.70;;;;;;4987838;28;19921;-66
2023/01/26 00:33:13;;;;;;;;;;;1.70;98.70;;;;;;5005367;28;19920;-66
2023/01/26 00:35:43;;;;;;;;;;;1.70;98.70;;;;;;5007805;28;19924;-66
2023/01/26 00:38:11;;;;;;;;;;;1.70;98.70;;;;;;5006898;28;20645;-66
2023/01/26 00:40:37;;;;;;;;;;;1.70;98.70;;;;;;5007176;28;20625;-66
2023/01/26 00:43:03;;;;;;;;;;;1.70;98.70;;;;;;5006813;28;19913;-66
2023/01/26 00:45:28;;;;;;;;;;;1.70;98.70;;;;;;5007308;28;19985;-66
2023/01/26 00:47:54;;;;;;;;;;;1.70;98.70;;;;;;5000925;28;20702;-66
2023/01/26 00:50:19;;;;;;;;;;;1.70;98.70;;;;;;4996974;28;19962;-67
2023/01/26 00:52:45;;;;;;;;;;;1.70;98.70;;;;;;4987641;28;19910;-67
2023/01/26 00:55:10;;;;;;;;;;;1.70;98.70;;;;;;4987263;28;19941;-67
2023/01/26 00:57:35;;;;;;;;;;;1.60;98.70;;;;;;4998791;28;20055;-66
2023/01/26 01:00:01;;;;;;;;;;;1.70;98.70;;;;;;5007085;28;20024;-67
2023/01/26 01:02:27;;;;;;;;;;;1.70;98.70;;;;;;5007201;28;20302;-67
2023/01/26 01:04:52;;;;;;;;;;;1.60;98.70;;;;;;5007703;28;19918;-66
2023/01/26 01:07:18;;;;;;;;;;;1.70;98.70;;;;;;5007141;28;19921;-66
2023/01/26 01:09:44;;;;;;;;;;;1.60;98.70;;;;;;5006976;28;20039;-66
2023/01/26 01:12:09;;;;;;;;;;;1.70;98.70;;;;;;5006356;28;19917;-67
2023/01/26 01:14:35;;;;;;;;;;;1.60;98.70;;;;;;5007001;28;19914;-67
2023/01/26 01:17:00;;;;;;;;;;;1.60;98.80;;;;;;5006908;28;20418;-66
2023/01/26 01:19:26;;;;;;;;;;;1.60;98.80;;;;;;4996948;28;19913;-67
2023/01/26 01:21:51;;;;;;;;;;;1.70;98.80;;;;;;5007121;28;20373;-67
2023/01/26 01:24:17;;;;;;;;;;;1.60;98.70;;;;;;5006408;28;19967;-67
2023/01/26 01:26:42;;;;;;;;;;;1.60;98.80;;;;;;5005899;28;20321;-66
2023/01/26 01:29:10;;;;;;;;;;;1.60;98.80;;;;;;5005937;28;19914;-67
2023/01/26 01:31:35;;;;;;;;;;;1.60;98.80;;;;;;5005220;28;19920;-66
2023/01/26 01:34:01;;;;;;;;;;;1.60;98.80;;;;;;5005290;28;20603;-67
2023/01/26 01:36:28;;;;;;;;;;;1.60;98.80;;;;;;5006619;28;19963;-67
2023/01/26 01:38:53;;;;;;;;;;;1.60;98.80;;;;;;5003607;28;19918;-67
2023/01/26 01:41:20;;;;;;;;;;;1.60;98.80;;;;;;5004609;28;19913;-66
2023/01/26 01:43:45;;;;;;;;;;;1.60;98.80;;;;;;5010366;28;19952;-66
2023/01/26 01:46:31;;;;;;;;;;;1.60;98.80;;;;;;5010351;28;19952;-67
2023/01/26 01:48:59;;;;;;;;;;;1.60;98.80;;;;;;4990316;28;20021;-66
2023/01/26 01:51:45;;;;;;;;;;;1.60;98.80;;;;;;5009887;28;19910;-66
2023/01/26 01:54:13;;;;;;;;;;;1.60;98.80;;;;;;4990747;28;19988;-66
2023/01/26 01:56:41;;;;;;;;;;;1.60;98.80;;;;;;4994779;28;19953;-66
2023/01/26 01:59:07;;;;;;;;;;;1.60;98.80;;;;;;5010546;28;19914;-67
2023/01/26 02:01:33;;;;;;;;;;;1.60;98.80;;;;;;5010395;28;19940;-66
2023/01/26 02:04:00;;;;;;;;;;;1.60;98.80;;;;;;5010542;28;20498;-67
2023/01/26 02:06:29;;;;;;;;;;;1.60;98.80;;;;;;5009633;28;20469;-66
2023/01/26 02:08:55;;;;;;;;;;;1.60;98.80;;;;;;5010195;28;19909;-66
2023/01/26 02:11:44;;;;;;;;;;;1.60;98.80;;;;;;5009949;28;19981;-66
2023/01/26 02:14:10;;;;;;;;;;;1.60;98.80;;;;;;4999488;28;20104;-66
2023/01/26 02:16:38;;;;;;;;;;;1.60;98.80;;;;;;5009801;28;19947;-66
2023/01/26 02:19:08;;;;;;;;;;;1.60;98.80;;;;;;5000561;28;19936;-66
2023/01/26 02:21:33;;;;;;;;;;;1.60;98.80;;;;;;5008609;28;19975;-66
2023/01/26 02:24:18;;;;;;;;;;;1.60;98.80;;;;;;4991262;28;19918;-66
2023/01/26 02:26:43;;;;;;;;;;;1.60;98.80;;;;;;4994728;28;19913;-66
2023/01/26 02:29:10;;;;;;;;;;;1.60;98.80;;;;;;5009870;28;19928;-66
2023/01/26 02:31:36;;;;;;;;;;;1.60;98.80;;;;;;5009521;28;19913;-66
2023/01/26 02:34:01;;;;;;;;;;;1.60;98.80;;;;;;5029329;28;20223;-66
2023/01/26 02:36:29;;;;;;;;;;;1.60;98.80;;;;;;5014436;28;19917;-66
2023/01/26 02:38:58;;;;;;;;;;;1.60;98.90;;;;;;5009670;28;19917;-67
2023/01/26 02:44:08;;;;;;;;;;;1.60;98.90;;;;;;5009346;28;20016;-67
2023/01/26 02:46:34;;;;;;;;;;;1.60;98.90;;;;;;4988384;28;19914;-66
2023/01/26 02:51:44;;;;;;;;;;;1.60;98.90;;;;;;4994064;28;19925;-66
2023/01/26 02:55:21;;;;;;;;;;;1.60;98.90;;;;;;4997457;28;19925;-66
2023/01/26 02:56:55;;;;;;;;;;;1.60;99.00;;;;;;5008656;28;19918;-66
2023/01/26 02:59:20;;;;;;;;;;;1.60;98.90;;;;;;5008486;28;19920;-67
2023/01/26 03:01:48;;;;;;;;;;;1.60;98.90;;;;;;5009039;28;20302;-66
2023/01/26 03:04:13;;;;;;;;;;;1.60;98.90;;;;;;5009314;28;20488;-67
2023/01/26 03:06:38;;;;;;;;;;;1.60;98.90;;;;;;5008951;28;19921;-66
2023/01/26 03:09:04;;;;;;;;;;;1.60;98.90;;;;;;5008942;28;20132;-67
2023/01/26 03:11:40;;;;;;;;;;;1.60;98.90;;;;;;5009244;28;19918;-67
2023/01/26 03:14:07;;;;;;;;;;;1.60;98.90;;;;;;5009110;28;19960;-66
2023/01/26 03:16:32;;;;;;;;;;;1.60;98.90;;;;;;5008603;28;19975;-67
2023/01/26 03:27:26;;;;;;;;;;;1.60;98.90;;;;;;5008962;28;19933;-66
2023/01/26 03:29:52;;;;;;;;;;;1.60;98.90;;;;;;5008036;28;19913;-67
2023/01/26 03:32:18;;;;;;;;;;;1.60;98.90;;;;;;4991086;28;19963;-66
2023/01/26 03:34:44;;;;;;;;;;;1.60;98.90;;;;;;5008032;28;19945;-66
2023/01/26 03:37:10;;;;;;;;;;;1.60;98.90;;;;;;5006799;28;19917;-66
2023/01/26 03:56:23;;;;;;;;;;;1.60;99.20;;;;;;5008171;28;20457;-66
2023/01/26 03:58:55;;;;;;;;;;;1.60;99.00;;;;;;4994344;28;20422;-66
2023/01/26 04:01:25;;;;;;;;;;;1.60;98.90;;;;;;5000900;28;19964;-66
2023/01/26 04:09:20;;;;;;;;;;;1.60;99.00;;;;;;5008182;28;20385;-67
2023/01/26 04:11:46;;;;;;;;;;;1.60;99.00;;;;;;5008005;28;19913;-66
2023/01/26 04:22:26;;;;;;;;;;;1.60;99.00;;;;;;5008249;28;19985;-67
2023/01/26 04:24:51;;;;;;;;;;;1.60;99.00;;;;;;5003454;28;19950;-66
2023/01/26 04:27:17;;;;;;;;;;;1.60;99.00;;;;;;4998090;28;19920;-66
2023/01/26 04:29:42;;;;;;;;;;;1.60;99.00;;;;;;4998964;28;19960;-67
2023/01/26 04:32:08;;;;;;;;;;;1.60;99.00;;;;;;5002888;28;20446;-66
2023/01/26 04:34:33;;;;;;;;;;;1.60;99.00;;;;;;5007451;28;19921;-67
2023/01/26 04:36:59;;;;;;;;;;;1.60;99.00;;;;;;5004436;28;19971;-66
2023/01/26 04:39:24;;;;;;;;;;;1.60;99.00;;;;;;4998458;28;20638;-67
2023/01/26 04:41:50;;;;;;;;;;;1.60;99.00;;;;;;5007109;28;19917;-67
2023/01/26 04:44:15;;;;;;;;;;;1.60;99.00;;;;;;5007067;28;19917;-66
2023/01/26 04:46:41;;;;;;;;;;;1.60;99.00;;;;;;5002596;28;19914;-66
2023/01/26 04:49:07;;;;;;;;;;;1.60;99.00;;;;;;5002989;28;19944;-67
2023/01/26 04:51:32;;;;;;;;;;;1.60;99.10;;;;;;5007115;28;20378;-67
2023/01/26 04:53:57;;;;;;;;;;;1.60;99.00;;;;;;5007226;28;19937;-66
2023/01/26 04:56:27;;;;;;;;;;;1.60;99.00;;;;;;5007207;28;20384;-66
2023/01/26 04:58:53;;;;;;;;;;;1.60;99.00;;;;;;5007354;28;19914;-67
2023/01/26 05:01:19;;;;;;;;;;;1.60;99.10;;;;;;5020323;28;20302;-67
2023/01/26 05:03:45;;;;;;;;;;;1.60;99.00;;;;;;4985981;28;20001;-67
2023/01/26 05:06:10;;;;;;;;;;;1.60;99.00;;;;;;5000785;28;19918;-66
2023/01/26 05:08:36;;;;;;;;;;;1.60;99.00;;;;;;4989471;28;19989;-68
2023/01/26 05:11:02;;;;;;;;;;;1.60;99.10;;;;;;5006887;28;19921;-67
2023/01/26 05:13:27;;;;;;;;;;;1.60;99.10;;;;;;5007026;28;20575;-66
2023/01/26 05:15:53;;;;;;;;;;;1.60;99.10;;;;;;5006395;28;19921;-67
2023/01/26 05:18:18;;;;;;;;;;;1.60;99.10;;;;;;5006312;28;20523;-67
2023/01/26 05:20:44;;;;;;;;;;;1.60;99.10;;;;;;5006590;28;19909;-67
2023/01/26 05:23:09;;;;;;;;;;;1.60;99.10;;;;;;5006193;28;19948;-67
2023/01/26 05:25:35;;;;;;;;;;;1.60;99.10;;;;;;5005902;28;19914;-67
2023/01/26 05:28:00;;;;;;;;;;;1.60;99.10;;;;;;5006518;28;19949;-66
2023/01/26 05:30:26;;;;;;;;;;;1.60;99.10;;;;;;5005990;28;20302;-67
2023/01/26 05:32:51;;;;;;;;;;;1.60;99.10;;;;;;5006390;28;20012;-66
2023/01/26 05:35:17;;;;;;;;;;;1.60;99.10;;;;;;5006849;28;20646;-67
2023/01/26 05:37:44;;;;;;;;;;;1.60;99.10;;;;;;5006940;28;19918;-67
2023/01/26 05:40:10;;;;;;;;;;;1.60;99.10;;;;;;5006829;28;20268;-66
2023/01/26 05:42:35;;;;;;;;;;;1.60;99.10;;;;;;5001675;28;19913;-66
2023/01/26 05:45:01;;;;;;;;;;;1.60;99.10;;;;;;5006814;28;20460;-66
2023/01/26 05:47:26;;;;;;;;;;;1.60;99.10;;;;;;4987502;28;19914;-67
2023/01/26 05:49:52;;;;;;;;;;;1.60;99.10;;;;;;5005918;28;19914;-66
2023/01/26 05:52:19;;;;;;;;;;;1.60;99.10;;;;;;4989074;28;20535;-67
2023/01/26 05:54:45;;;;;;;;;;;1.60;99.10;;;;;;5006718;28;19940;-66
2023/01/26 05:57:11;;;;;;;;;;;1.60;99.20;;;;;;5006874;28;19939;-66
2023/01/26 05:59:36;;;;;;;;;;;1.60;99.20;;;;;;5006543;28;20294;-66
2023/01/26 06:02:02;;;;;;;;;;;1.60;99.20;;;;;;5006531;28;20016;-66
2023/01/26 06:04:28;;;;;;;;;;;1.60;99.20;;;;;;5006311;28;19920;-67
2023/01/26 06:06:54;;;;;;;;;;;1.60;99.20;;;;;;5006522;28;19920;-66
2023/01/26 06:09:20;;;;;;;;;;;1.60;99.20;;;;;;5005650;28;19917;-67
2023/01/26 06:11:45;;;;;;;;;;;1.60;99.20;;;;;;5004312;28;19976;-66
2023/01/26 06:14:11;;;;;;;;;;;1.60;99.20;;;;;;5006504;28;20008;-67
2023/01/26 06:16:36;;;;;;;;;;;1.60;99.20;;;;;;5002501;28;19921;-67
2023/01/26 06:19:02;;;;;;;;;;;1.60;99.20;;;;;;4992299;28;19909;-68
2023/01/26 06:21:27;;;;;;;;;;;1.60;99.20;;;;;;5006147;28;19936;-66
2023/01/26 06:23:53;;;;;;;;;;;1.60;99.20;;;;;;5006269;28;19987;-67
2023/01/26 06:26:18;;;;;;;;;;;1.60;99.20;;;;;;5006615;28;19920;-66
2023/01/26 06:28:44;;;;;;;;;;;1.70;99.20;;;;;;5009737;28;19919;-67
2023/01/26 06:31:10;;;;;;;;;;;1.60;99.20;;;;;;5009737;28;19921;-66
2023/01/26 06:33:36;;;;;;;;;;;1.60;99.20;;;;;;5009990;28;19988;-67
2023/01/26 06:36:06;;;;;;;;;;;1.60;99.20;;;;;;5009939;28;19924;-67
2023/01/26 06:38:31;;;;;;;;;;;1.60;99.20;;;;;;4992304;28;19956;-66
2023/01/26 06:41:01;;;;;;;;;;;1.60;99.20;;;;;;5007093;28;19913;-67
2023/01/26 06:43:28;;;;;;;;;;;1.60;99.20;;;;;;5007418;28;19920;-66
2023/01/26 06:45:57;;;;;;;;;;;1.60;99.20;;;;;;5009600;28;19920;-66
2023/01/26 06:48:26;;;;;;;;;;;1.60;99.20;;;;;;5000497;28;19914;-66
2023/01/26 06:50:52;;;;;;;;;;;1.60;99.20;;;;;;5009220;28;19917;-67
2023/01/26 06:53:29;;;;;;;;;;;1.70;99.20;;;;;;5009619;28;19914;-66
2023/01/26 06:55:54;;;;;;;;;;;1.60;99.20;;;;;;5009416;28;19914;-66
2023/01/26 06:58:20;;;;;;;;;;;1.60;99.20;;;;;;5009539;28;19919;-67
2023/01/26 07:00:45;;;;;;;;;;;1.70;99.20;;;;;;5009180;28;19921;-67
2023/01/26 07:03:11;;;;;;;;;;;1.70;99.20;;;;;;5009094;28;19916;-66
2023/01/26 07:05:36;;;;;;;;;;;1.70;99.20;;;;;;5009357;28;19914;-66
2023/01/26 07:08:05;;;;;;;;;;;1.70;99.20;;;;;;5009169;28;20593;-67
2023/01/26 07:10:30;;;;;;;;;;;1.70;99.20;;;;;;5009042;28;20581;-67
2023/01/26 07:12:56;;;;;;;;;;;1.70;99.20;;;;;;5009472;28;19914;-67
2023/01/26 07:15:21;;;;;;;;;;;1.70;99.20;;;;;;5009130;28;19920;-66
2023/01/26 07:17:47;;;;;;;;;;;1.70;99.20;;;;;;5009075;28;19921;-66
2023/01/26 07:20:12;;;;;;;;;;;1.70;99.30;;;;;;4999093;28;20343;-67
2023/01/26 07:22:38;;;;;;;;;;;1.70;99.30;;;;;;5008742;28;19940;-66
2023/01/26 07:25:03;;;;;;;;;;;1.70;99.20;;;;;;5008880;28;19917;-67
2023/01/26 07:27:29;;;;;;;;;;;1.70;99.20;;;;;;5009020;28;19913;-67
2023/01/26 07:29:54;;;;;;;;;;;1.70;99.20;;;;;;5008582;28;20007;-66
2023/01/26 07:32:20;;;;;;;;;;;1.70;99.20;;;;;;5008763;28;19917;-69
2023/01/26 07:34:45;;;;;;;;;;;1.70;99.30;;;;;;5007296;28;19998;-67
2023/01/26 07:37:11;;;;;;;;;;;1.70;99.30;;;;;;5007097;28;19957;-67
2023/01/26 07:39:37;;;;;;;;;;;1.70;99.30;;;;;;5008044;28;19913;-67
2023/01/26 07:42:02;;;;;;;;;;;1.70;99.30;;;;;;5007931;28;19920;-67
2023/01/26 07:44:28;;;;;;;;;;;1.70;99.30;;;;;;5008153;28;20076;-67
2023/01/26 07:46:53;;;;;;;;;;;1.70;99.30;;;;;;5002042;28;19922;-67
2023/01/26 07:49:19;;;;;;;;;;;1.70;99.20;;;;;;5005516;28;19919;-67
2023/01/26 07:51:44;;;;;;;;;;;1.70;99.20;;;;;;5008567;28;19916;-67
2023/01/26 07:54:11;;;;;;;;;;;1.70;99.20;;;;;;5006631;28;20008;-66
2023/01/26 07:56:37;;;;;;;;;;;1.70;99.20;;;;;;5008183;28;19959;-67
2023/01/26 07:59:03;;;;;;;;;;;1.70;99.20;;;;;;5007982;28;20001;-67
2023/01/26 08:01:29;;;;;;;;;;;1.70;99.20;;;;;;5007816;28;19917;-67
2023/01/26 08:03:54;;;;;;;;;;;1.70;99.20;;;;;;5008123;28;19909;-66
2023/01/26 08:06:20;;;;;;;;;;;1.70;99.20;;;;;;5008276;28;19976;-66
2023/01/26 08:08:49;;;;;;;;;;;1.70;99.20;;;;;;5007979;28;20294;-66
2023/01/26 08:11:16;;;;;;;;;;;1.70;99.20;;;;;;5007928;28;19916;-66
2023/01/26 08:13:41;;;;;;;;;;;1.70;99.20;;;;;;5008265;28;20333;-66
2023/01/26 08:16:11;;;;;;;;;;;1.70;99.20;;;;;;5008007;28;19921;-67
2023/01/26 08:18:37;;;;;;;;;;;1.70;99.20;;;;;;5000250;28;19945;-66
2023/01/26 08:21:02;;;;;;;;;;;1.70;99.30;;;;;;5004095;28;20369;-67
2023/01/26 08:23:28;;;;;;;;;;;1.70;99.20;;;;;;5007992;28;20270;-66
2023/01/26 08:25:53;;;;;;;;;;;1.80;99.30;;;;;;5008045;28;19922;-67
2023/01/26 08:28:19;;;;;;;;;;;1.70;99.20;;;;;;5007809;28;19910;-66
2023/01/26 08:30:44;;;;;;;;;;;1.70;99.50;;;;;;5007658;28;19910;-66
2023/01/26 08:33:10;;;;;;;;;;;1.70;99.20;;;;;;5007529;28;19921;-66
2023/01/26 08:35:35;;;;;;;;;;;1.70;99.20;;;;;;5007579;28;20008;-66
2023/01/26 08:38:01;;;;;;;;;;;1.80;99.30;;;;;;5007500;28;19910;-67
2023/01/26 08:40:26;;;;;;;;;;;1.70;99.30;;;;;;5007484;28;19913;-66
2023/01/26 08:42:53;;;;;;;;;;;1.80;99.30;;;;;;5002445;28;19941;-66
2023/01/26 08:45:19;;;;;;;;;;;1.80;99.30;;;;;;5007423;28;19913;-66
2023/01/26 08:47:47;;;;;;;;;;;1.80;99.30;;;;;;4998646;28;19917;-66
2023/01/26 08:50:13;;;;;;;;;;;1.80;99.30;;;;;;5006533;28;20026;-66
2023/01/26 08:52:38;;;;;;;;;;;1.80;99.30;;;;;;5003663;28;19917;-66
2023/01/26 08:55:04;;;;;;;;;;;1.80;99.30;;;;;;4997753;28;19917;-66
2023/01/26 08:57:29;;;;;;;;;;;1.80;99.30;;;;;;5006910;28;20366;-67
2023/01/26 08:59:55;;;;;;;;;;;1.80;99.20;;;;;;5007327;28;19946;-66
2023/01/26 09:02:20;;;;;;;;;;;1.80;99.30;;;;;;5007368;28;19913;-67
2023/01/26 09:04:46;;;;;;;;;;;1.80;99.30;;;;;;5007365;28;19920;-67
2023/01/26 09:07:11;;;;;;;;;;;1.80;99.30;;;;;;5006887;28;20004;-66
2023/01/26 09:09:37;;;;;;;;;;;1.80;99.30;;;;;;5006736;28;19913;-67
2023/01/26 09:12:03;;;;;;;;;;;1.80;99.30;;;;;;5006994;28;19975;-66
2023/01/26 09:14:29;;;;;;;;;;;1.80;99.30;;;;;;5007124;28;19921;-66
2023/01/26 09:16:54;;;;;;;;;;;1.80;99.30;;;;;;5006545;28;19926;-67
2023/01/26 09:19:20;;;;;;;;;;;1.80;99.30;;;;;;4997233;28;19961;-66
2023/01/26 09:21:45;;;;;;;;;;;1.80;99.30;;;;;;4989081;28;19973;-67
2023/01/26 09:24:11;;;;;;;;;;;1.90;99.30;;;;;;5006818;28;19914;-66
2023/01/26 09:26:36;;;;;;;;;;;1.90;99.30;;;;;;5004226;28;19913;-66
2023/01/26 09:29:02;;;;;;;;;;;1.90;99.30;;;;;;4987264;28;19914;-67
2023/01/26 09:31:28;;;;;;;;;;;1.90;99.30;;;;;;4990102;28;20565;-66
2023/01/26 09:33:53;;;;;;;;;;;1.90;99.30;;;;;;5006902;28;20445;-66
2023/01/26 09:36:19;;;;;;;;;;;1.90;99.30;;;;;;5006979;28;19918;-67
2023/01/26 09:38:44;;;;;;;;;;;1.90;99.30;;;;;;5006953;28;19956;-66
2023/01/26 09:41:12;;;;;;;;;;;1.90;99.30;;;;;;5006628;28;20693;-67
2023/01/26 09:43:47;;;;;;;;;;;1.90;99.30;;;;;;5006522;28;20370;-66
2023/01/26 09:46:26;;;;;;;;;;;1.90;99.30;;;;;;5006903;28;19941;-67
2023/01/26 09:48:52;;;;;;;;;;;1.90;99.30;;;;;;5000302;28;20370;-66
2023/01/26 09:51:30;;;;;;;;;;;1.90;99.30;;;;;;4988551;28;19917;-66
2023/01/26 09:53:58;;;;;;;;;;;1.90;99.20;;;;;;4987180;28;19914;-67
2023/01/26 09:56:28;;;;;;;;;;;2.00;99.30;;;;;;4988974;28;19925;-66
2023/01/26 09:58:56;;;;;;;;;;;2.00;99.30;;;;;;5006959;28;19917;-66
2023/01/26 10:01:40;;;;;;;;;;;2.00;99.30;;;;;;5006600;28;20522;-66
2023/01/26 10:04:31;;;;;;;;;;;2.00;99.30;;;;;;5009831;28;20322;-66
2023/01/26 10:06:57;;;;;;;;;;;2.00;99.30;;;;;;5004691;28;20009;-66
2023/01/26 10:09:24;;;;;;;;;;;2.00;99.30;;;;;;5008730;28;20008;-66
2023/01/26 10:11:58;;;;;;;;;;;2.00;99.30;;;;;;5008958;28;19913;-67
2023/01/26 10:14:24;;;;;;;;;;;2.00;99.20;;;;;;4992591;28;19920;-66
2023/01/26 10:16:51;;;;;;;;;;;2.00;99.30;;;;;;5010150;28;19921;-66
2023/01/26 10:19:17;;;;;;;;;;;2.00;99.30;;;;;;5007436;28;19953;-67
2023/01/26 10:21:45;;;;;;;;;;;2.00;99.30;;;;;;5008941;28;20752;-66
2023/01/26 10:24:11;;;;;;;;;;;2.10;99.30;;;;;;5009880;28;19914;-66
2023/01/26 10:26:36;;;;;;;;;;;2.10;99.30;;;;;;4992215;28;20377;-66
2023/01/26 10:29:02;;;;;;;;;;;2.00;99.30;;;;;;5009893;28;20400;-66
2023/01/26 10:31:29;;;;;;;;;;;2.00;99.30;;;;;;5010088;28;19913;-66
2023/01/26 10:33:56;;;;;;;;;;;2.10;99.30;;;;;;5009988;28;19909;-66
2023/01/26 10:36:22;;;;;;;;;;;2.10;99.30;;;;;;5009826;28;19924;-67
2023/01/26 10:38:48;;;;;;;;;;;2.10;99.30;;;;;;5009739;28;19913;-67
2023/01/26 10:41:15;;;;;;;;;;;2.10;99.40;;;;;;5009278;28;20676;-66
2023/01/26 10:43:42;;;;;;;;;;;2.10;99.40;;;;;;5009270;28;19918;-66
2023/01/26 10:46:27;;;;;;;;;;;2.10;99.40;;;;;;5009753;28;19914;-67
2023/01/26 10:48:54;;;;;;;;;;;2.10;99.40;;;;;;4995393;28;19916;-66
2023/01/26 10:51:24;;;;;;;;;;;2.10;99.30;;;;;;5009210;28;19917;-66
2023/01/26 10:53:50;;;;;;;;;;;2.10;99.40;;;;;;5009356;28;19927;-66
2023/01/26 10:56:16;;;;;;;;;;;2.10;99.30;;;;;;5009648;28;19964;-66
2023/01/26 10:58:54;;;;;;;;;;;2.20;99.40;;;;;;5009425;28;20565;-66
2023/01/26 11:01:26;;;;;;;;;;;2.20;99.40;;;;;;5009238;28;19925;-67
2023/01/26 11:03:57;;;;;;;;;;;2.20;99.30;;;;;;5009199;28;19920;-66
2023/01/26 11:06:26;;;;;;;;;;;2.20;99.40;;;;;;5009450;28;20388;-66
2023/01/26 11:08:51;;;;;;;;;;;2.20;99.40;;;;;;5009385;28;19921;-66
2023/01/26 11:11:28;;;;;;;;;;;2.20;99.40;;;;;;5009231;28;19913;-66
2023/01/26 11:14:12;;;;;;;;;;;2.20;99.30;;;;;;5008704;28;19918;-66
2023/01/26 11:16:39;;;;;;;;;;;2.20;99.30;;;;;;5008853;28;19975;-66
2023/01/26 11:19:27;;;;;;;;;;;2.20;99.40;;;;;;4999330;28;20000;-66
2023/01/26 11:22:04;;;;;;;;;;;2.20;99.30;;;;;;5008504;28;20008;-66
2023/01/26 11:24:30;;;;;;;;;;;2.20;99.30;;;;;;5008990;28;19917;-66
2023/01/26 11:27:04;;;;;;;;;;;2.20;99.40;;;;;;5008469;28;20613;-66
2023/01/26 11:29:48;;;;;;;;;;;2.30;99.40;;;;;;5008963;28;19921;-66
2023/01/26 11:32:21;;;;;;;;;;;2.30;99.40;;;;;;5008863;28;20378;-66
2023/01/26 11:34:46;;;;;;;;;;;2.30;99.40;;;;;;5008915;28;20398;-66
2023/01/26 11:37:30;;;;;;;;;;;2.30;99.40;;;;;;5008512;28;19917;-66
2023/01/26 11:40:14;;;;;;;;;;;2.30;99.40;;;;;;5007091;28;20605;-66
2023/01/26 11:42:45;;;;;;;;;;;2.30;99.40;;;;;;5006817;28;19940;-66
2023/01/26 11:45:10;;;;;;;;;;;2.30;99.40;;;;;;4992717;28;19964;-66
2023/01/26 11:47:38;;;;;;;;;;;2.30;99.40;;;;;;5000859;28;20362;-66
2023/01/26 11:50:19;;;;;;;;;;;2.30;99.40;;;;;;5008233;28;19915;-66
2023/01/26 11:52:56;;;;;;;;;;;2.30;99.40;;;;;;5008787;28;20000;-66
2023/01/26 11:55:22;;;;;;;;;;;2.30;99.40;;;;;;5008273;28;19951;-66
2023/01/26 11:57:50;;;;;;;;;;;2.30;99.40;;;;;;5008489;28;19964;-66
2023/01/26 12:00:22;;;;;;;;;;;2.40;99.40;;;;;;5007971;28;19945;-66
2023/01/26 12:03:04;;;;;;;;;;;2.40;99.40;;;;;;5008556;28;20366;-66
2023/01/26 12:05:50;;;;;;;;;;;2.40;99.40;;;;;;5008297;28;20102;-66
2023/01/26 12:08:24;;;;;;;;;;;2.40;99.50;;;;;;5007647;28;19939;-66
2023/01/26 12:10:57;;;;;;;;;;;2.40;99.40;;;;;;5007761;28;19924;-66
2023/01/26 12:13:31;;;;;;;;;;;2.40;99.40;;;;;;5008223;28;19956;-66
2023/01/26 12:16:00;;;;;;;;;;;2.40;99.50;;;;;;5004877;28;19921;-66
2023/01/26 12:18:33;;;;;;;;;;;2.40;99.40;;;;;;4998654;28;20422;-66
2023/01/26 12:21:04;;;;;;;;;;;2.30;99.50;;;;;;5007705;28;19913;-66
2023/01/26 12:23:53;;;;;;;;;;;2.40;99.50;;;;;;5007715;28;19925;-66
2023/01/26 12:26:20;;;;;;;;;;;2.40;99.50;;;;;;5007266;28;20011;-66
2023/01/26 12:28:49;;;;;;;;;;;2.40;99.50;;;;;;5007716;28;19920;-66
2023/01/26 12:31:23;;;;;;;;;;;2.40;99.50;;;;;;5007450;28;20003;-66
2023/01/26 12:33:51;;;;;;;;;;;2.40;99.50;;;;;;5007483;28;19920;-66
2023/01/26 12:36:19;;;;;;;;;;;2.40;99.50;;;;;;4990016;28;19921;-66
2023/01/26 12:38:57;;;;;;;;;;;2.40;99.50;;;;;;5007335;28;20014;-66
2023/01/26 12:41:22;;;;;;;;;;;2.40;99.50;;;;;;5001769;28;19920;-66
2023/01/26 12:44:07;;;;;;;;;;;2.40;99.60;;;;;;5006559;28;20586;-66
2023/01/26 12:46:34;;;;;;;;;;;2.40;99.60;;;;;;5002995;28;19921;-66
2023/01/26 12:49:02;;;;;;;;;;;2.40;99.60;;;;;;5001375;28;19918;-66
2023/01/26 12:51:36;;;;;;;;;;;2.40;99.60;;;;;;5007176;28;19914;-66
2023/01/26 12:54:05;;;;;;;;;;;2.40;99.60;;;;;;5007349;28;20024;-66
2023/01/26 12:56:30;;;;;;;;;;;2.40;99.60;;;;;;5007147;28;19928;-67
2023/01/26 12:58:57;;;;;;;;;;;2.40;99.60;;;;;;5007555;28;19914;-66
2023/01/26 13:01:24;;;;;;;;;;;2.40;99.80;;;;;;5007208;28;19925;-66
2023/01/26 13:03:56;;;;;;;;;;;2.40;99.60;;;;;;5007084;28;19913;-66
2023/01/26 13:06:23;;;;;;;;;;;2.40;99.60;;;;;;5007234;28;19967;-66
2023/01/26 13:08:53;;;;;;;;;;;2.50;99.60;;;;;;5007025;28;19959;-66
2023/01/26 13:11:48;;;;;;;;;;;2.40;99.60;;;;;;5007065;28;19914;-66
2023/01/26 13:14:30;;;;;;;;;;;2.50;99.60;;;;;;4989884;28;19913;-66
2023/01/26 13:16:56;;;;;;;;;;;2.50;99.60;;;;;;5006843;28;20375;-66
2023/01/26 13:19:36;;;;;;;;;;;2.50;99.60;;;;;;5006107;28;19913;-66
2023/01/26 13:22:01;;;;;;;;;;;2.50;99.60;;;;;;5007079;28;19920;-66
2023/01/26 13:24:26;;;;;;;;;;;2.50;99.70;;;;;;5007130;28;19917;-66
2023/01/26 13:26:56;;;;;;;;;;;2.50;99.70;;;;;;5005820;28;20269;-66
2023/01/26 13:29:24;;;;;;;;;;;2.50;99.60;;;;;;5006975;28;19917;-66
2023/01/26 13:31:50;;;;;;;;;;;2.50;99.60;;;;;;5006988;28;20444;-66
2023/01/26 13:34:18;;;;;;;;;;;2.50;99.70;;;;;;5006719;28;19917;-66
2023/01/26 13:36:44;;;;;;;;;;;2.50;99.60;;;;;;5009135;28;19953;-66
2023/01/26 13:39:17;;;;;;;;;;;2.50;99.70;;;;;;5010917;28;19959;-66
2023/01/26 13:41:45;;;;;;;;;;;2.50;99.70;;;;;;5010500;28;19913;-66
2023/01/26 13:44:17;;;;;;;;;;;2.50;99.70;;;;;;5010277;28;20013;-66
2023/01/26 13:46:54;;;;;;;;;;;2.50;99.70;;;;;;5006136;28;20319;-66
2023/01/26 13:49:24;;;;;;;;;;;2.50;99.70;;;;;;5007938;28;19917;-66
2023/01/26 13:51:50;;;;;;;;;;;2.50;99.70;;;;;;5010887;28;20361;-67
2023/01/26 13:54:16;;;;;;;;;;;2.50;99.70;;;;;;5010667;28;19921;-66
2023/01/26 13:57:02;;;;;;;;;;;2.50;99.70;;;;;;5010640;28;20495;-66
2023/01/26 13:59:28;;;;;;;;;;;2.50;99.70;;;;;;5010028;28;19913;-66
2023/01/26 14:01:54;;;;;;;;;;;2.50;99.70;;;;;;5010595;28;19913;-66
2023/01/26 14:04:29;;;;;;;;;;;2.50;99.70;;;;;;5010593;28;20410;-66
2023/01/26 14:06:55;;;;;;;;;;;2.50;99.70;;;;;;5008192;28;19979;-66
2023/01/26 14:09:21;;;;;;;;;;;2.50;99.90;;;;;;5009332;28;19914;-66
2023/01/26 14:11:52;;;;;;;;;;;2.50;99.70;;;;;;5010567;28;19913;-66
2023/01/26 14:14:28;;;;;;;;;;;2.50;99.70;;;;;;5010558;28;19910;-66
2023/01/26 14:16:56;;;;;;;;;;;2.50;99.70;;;;;;5003765;28;19922;-66
2023/01/26 14:19:21;;;;;;;;;;;2.50;99.70;;;;;;5007071;28;20037;-66
2023/01/26 14:21:51;;;;;;;;;;;2.50;99.70;;;;;;5010098;28;19981;-66
2023/01/26 14:24:18;;;;;;;;;;;2.50;99.70;;;;;;5010055;28;20007;-66
2023/01/26 14:26:43;;;;;;;;;;;2.50;99.70;;;;;;5010235;28;19918;-66
2023/01/26 14:29:16;;;;;;;;;;;2.50;99.70;;;;;;5010298;28;19988;-66
2023/01/26 14:31:42;;;;;;;;;;;2.50;99.70;;;;;;5010086;28;19937;-66
2023/01/26 14:34:08;;;;;;;;;;;2.50;99.80;;;;;;5009924;28;20506;-66
2023/01/26 14:36:38;;;;;;;;;;;2.60;99.80;;;;;;5009675;28;20015;-66
2023/01/26 14:39:13;;;;;;;;;;;2.60;99.80;;;;;;5009683;28;20076;-66
2023/01/26 14:41:39;;;;;;;;;;;2.60;99.80;;;;;;5004656;28;19914;-66
2023/01/26 14:44:06;;;;;;;;;;;2.50;99.70;;;;;;5009443;28;19963;-66
2023/01/26 14:46:34;;;;;;;;;;;2.60;99.80;;;;;;5006457;28;20406;-66
2023/01/26 14:49:02;;;;;;;;;;;2.60;99.80;;;;;;5003174;28;19980;-66
2023/01/26 14:51:31;;;;;;;;;;;2.50;99.80;;;;;;5006513;28;20346;-66
2023/01/26 14:53:58;;;;;;;;;;;2.50;99.70;;;;;;4999370;28;19914;-66
2023/01/26 14:56:34;;;;;;;;;;;2.60;99.80;;;;;;5007343;28;20016;-66
2023/01/26 14:59:00;;;;;;;;;;;2.60;99.80;;;;;;5009035;28;20373;-66
2023/01/26 15:01:26;;;;;;;;;;;2.60;99.70;;;;;;5008388;28;19913;-66
2023/01/26 15:03:57;;;;;;;;;;;2.60;99.80;;;;;;5008726;28;20355;-66
2023/01/26 15:06:27;;;;;;;;;;;2.70;99.80;;;;;;5002866;28;19917;-66
2023/01/26 15:08:54;;;;;;;;;;;2.60;99.70;;;;;;4999130;28;19914;-66
2023/01/26 15:14:30;;;;;;;;;;;2.70;99.80;;;;;;5003487;28;19917;-66
2023/01/26 15:16:55;;;;;;;;;;;2.70;99.80;;;;;;5000170;28;20057;-66
2023/01/26 15:19:22;;;;;;;;;;;2.70;99.80;;;;;;5001984;28;20021;-66
2023/01/26 15:21:47;;;;;;;;;;;2.70;99.80;;;;;;4999070;28;20035;-66
2023/01/26 15:24:13;;;;;;;;;;;2.70;99.80;;;;;;4996195;28;20317;-66